Latest Conditions
At L.F.Wade Int. Airport
Recorded at 9:55 pm
Few Clouds
Temp.: 
15°C/59°F
Humidity: 
55%
Wind: 
E 8KT
or 9mph
Island Observations
Observations
Wednesday, March 04, 2015

Observations are in local time and taken at least once an hour, or upon the start and end of specified events such as showers and thunderstorms.

Time Sky / Weather Wind Speed/Gusts Temp. R.H. Pressure
     knots (mph)  °C (°F)  %  mb / "Hg
 21:55 Few Clouds  E 8/0 (9/0) 15(59) 55 1027 / 30.34
 20:55 Mostly Cloudy  ENE 6/0 (7/0) 15(59) 59 1027 / 30.34
 19:55 Mostly Cloudy  NE 10/0 (12/0) 15(59) 57 1028 / 30.35
 18:55 Mostly Cloudy  NE 10/0 (12/0) 15(59) 56 1026 / 30.31
 17:55 Partly Cloudy  NE 9/0 (10/0) 15(59) 55 1026 / 30.30
 16:55 Partly Cloudy  NE 10/0 (12/0) 16(60) 53 1025 / 30.28
 15:55 Mostly Cloudy  NE 12/0 (14/0) 16(60) 61 1025 / 30.28
 14:55 Mostly Cloudy  NNE 13/0 (15/0) 16(61) 51 1025 / 30.26
 13:55 Mostly Cloudy  NNE 15/0 (17/0) 16(62) 57 1025 / 30.28
 12:55 Mostly Cloudy  NE 14/0 (16/0) 17(62) 58 1026 / 30.29
 11:55 Mostly Cloudy  NNE 14/0 (16/0) 17(62) 54 1026 / 30.29
 10:55 Mostly Cloudy  NNE 16/0 (18/0) 16(61) 60 1025 / 30.28
 10:30 Overcast  N 15/0 (17/0) 16(61) 61 1025 / 30.28
 09:55 Overcast  NNE 17/0 (20/0) 16(60) 65 1025 / 30.26
 08:55 Overcast  NNE 17/0 (20/0) 16(60) 68 1024 / 30.24
 07:55 Overcast  NNE 16/0 (18/0) 16(61) 72 1022 / 30.19
 07:41 Overcast  NNE 17/0 (20/0) 16(61) 74 1022 / 30.19
 06:55 Overcast Showers NNE 18/0 (21/0) 16(61) 79 1021 / 30.16
 05:55 Overcast  N 16/0 (18/0) 17(62) 82 1020 / 30.13
 04:55 Overcast  N 15/0 (17/0) 17(63) 85 1019 / 30.09
 04:13 Overcast Showers N 17/0 (20/0) 17(63) 86 1019 / 30.08
 03:55 Overcast Showers N 15/0 (17/0) 18(64) 89 1019 / 30.08
 03:35 Overcast Showers N 13/0 (15/0) 18(65) 86 1018 / 30.07
 02:55 Mostly Cloudy  NNW 14/0 (16/0) 18(65) 84 1018 / 30.07
Observations from our AWOS sites are available here (password and username are both 'guest').